createdAt,value
2022-12-31T00:01:16.375Z,56.39
2022-12-31T00:03:45.336Z,56.51
2022-12-31T00:06:20.390Z,56.55
2022-12-31T00:08:49.564Z,56.43
2022-12-31T00:11:18.511Z,56.34
2022-12-31T00:13:47.612Z,56.30
2022-12-31T00:16:20.807Z,56.37
2022-12-31T00:18:51.815Z,56.39
2022-12-31T00:21:21.305Z,56.33
2022-12-31T00:23:50.406Z,56.29
2022-12-31T00:26:22.073Z,56.25
2022-12-31T00:28:50.431Z,56.45
2022-12-31T00:31:23.875Z,56.38
2022-12-31T00:33:52.750Z,56.24
2022-12-31T00:36:23.901Z,56.37
2022-12-31T00:38:54.546Z,56.29
2022-12-31T00:41:24.206Z,56.28
2022-12-31T00:43:52.696Z,56.27
2022-12-31T00:46:23.092Z,56.23
2022-12-31T00:48:51.667Z,56.13
2022-12-31T00:51:23.790Z,56.27
2022-12-31T00:53:52.266Z,56.28
2022-12-31T00:56:22.733Z,56.23
2022-12-31T00:58:51.827Z,56.18
2022-12-31T01:01:24.167Z,56.14
2022-12-31T01:03:57.082Z,56.12
2022-12-31T01:06:25.854Z,56.10
2022-12-31T01:08:55.595Z,56.10
2022-12-31T01:11:28.969Z,56.34
2022-12-31T01:13:59.640Z,56.30
2022-12-31T01:16:32.403Z,56.29
2022-12-31T01:19:03.122Z,56.43
2022-12-31T01:21:31.797Z,56.45
2022-12-31T01:24:00.799Z,56.41
2022-12-31T01:26:29.626Z,56.41
2022-12-31T01:28:58.247Z,56.35
2022-12-31T01:31:28.228Z,56.46
2022-12-31T01:33:56.955Z,56.54
2022-12-31T01:36:27.547Z,56.49
2022-12-31T01:38:56.888Z,56.29
2022-12-31T01:41:28.027Z,56.51
2022-12-31T01:43:58.779Z,56.49
2022-12-31T01:46:41.676Z,56.43
2022-12-31T01:49:19.582Z,56.33
2022-12-31T01:51:52.686Z,56.38
2022-12-31T01:54:24.196Z,56.46
2022-12-31T01:56:55.200Z,56.42
2022-12-31T01:59:27.019Z,56.47
2022-12-31T02:01:57.358Z,56.36
2022-12-31T02:04:27.534Z,56.23
2022-12-31T02:06:59.136Z,56.36
2022-12-31T02:09:27.621Z,56.36
2022-12-31T02:11:55.886Z,56.44
2022-12-31T02:14:28.166Z,56.43
2022-12-31T02:17:08.865Z,56.51
2022-12-31T02:20:15.545Z,56.45
2022-12-31T02:23:17.142Z,56.57
2022-12-31T02:26:06.441Z,56.67
2022-12-31T02:28:57.365Z,56.57
2022-12-31T02:31:33.988Z,56.60
2022-12-31T02:34:07.776Z,56.67
2022-12-31T02:36:39.909Z,56.55
2022-12-31T02:39:10.535Z,56.66
2022-12-31T02:41:54.018Z,56.59
2022-12-31T02:44:24.942Z,56.74
2022-12-31T02:47:07.868Z,56.74
2022-12-31T02:49:45.009Z,56.88
2022-12-31T02:52:22.939Z,56.79
2022-12-31T02:55:00.190Z,56.73
2022-12-31T02:57:34.870Z,56.72
2022-12-31T03:00:24.738Z,56.83
2022-12-31T03:02:56.185Z,56.68
2022-12-31T03:05:28.326Z,56.74
2022-12-31T03:07:56.782Z,56.68
2022-12-31T03:10:25.088Z,56.82
2022-12-31T03:12:52.365Z,56.84
2022-12-31T03:15:24.533Z,56.78
2022-12-31T03:17:59.406Z,56.94
2022-12-31T03:20:49.091Z,56.96
2022-12-31T03:23:22.397Z,56.95
2022-12-31T03:25:49.897Z,57.03
2022-12-31T03:28:21.161Z,56.99
2022-12-31T03:30:52.229Z,57.15
2022-12-31T03:33:23.097Z,56.94
2022-12-31T03:35:51.888Z,57.16
2022-12-31T03:38:21.020Z,57.24
2022-12-31T03:40:54.464Z,57.14
2022-12-31T03:43:22.874Z,57.00
2022-12-31T03:45:52.624Z,57.10
2022-12-31T03:48:24.194Z,57.15
2022-12-31T03:50:52.912Z,57.10
2022-12-31T03:53:21.359Z,57.07
2022-12-31T03:55:53.067Z,57.11
2022-12-31T03:58:21.513Z,57.13
2022-12-31T04:00:50.163Z,57.09
2022-12-31T04:03:18.684Z,57.22
2022-12-31T04:05:54.610Z,57.16
2022-12-31T04:08:22.986Z,57.27
2022-12-31T04:10:51.399Z,57.22
2022-12-31T04:13:19.752Z,57.13
2022-12-31T04:15:51.561Z,57.17
2022-12-31T04:18:19.873Z,57.29
2022-12-31T04:20:49.581Z,57.34
2022-12-31T04:23:18.693Z,57.21
2022-12-31T04:25:46.991Z,57.27
2022-12-31T04:28:15.284Z,57.26
2022-12-31T04:30:43.533Z,57.32
2022-12-31T04:33:11.996Z,57.26
2022-12-31T04:35:40.327Z,57.33
2022-12-31T04:38:09.935Z,57.31
2022-12-31T04:40:58.728Z,57.50
2022-12-31T04:43:27.038Z,56.97
2022-12-31T04:45:55.290Z,56.90
2022-12-31T04:48:23.592Z,56.75
2022-12-31T04:50:51.848Z,56.75
2022-12-31T04:53:21.446Z,56.60
2022-12-31T04:55:49.669Z,56.46
2022-12-31T04:58:18.025Z,56.47
2022-12-31T05:00:49.788Z,56.40
2022-12-31T05:03:18.682Z,56.28
2022-12-31T05:05:46.992Z,56.30
2022-12-31T05:08:15.786Z,56.18
2022-12-31T05:10:47.535Z,56.21
2022-12-31T05:13:16.467Z,56.11
2022-12-31T05:15:44.823Z,56.25
2022-12-31T05:18:13.068Z,56.26
2022-12-31T05:20:41.573Z,56.28
2022-12-31T05:23:10.319Z,56.32
2022-12-31T05:25:38.978Z,56.39
2022-12-31T05:28:08.750Z,56.40
2022-12-31T05:30:37.152Z,56.51
2022-12-31T05:33:05.758Z,56.64
2022-12-31T05:35:34.098Z,56.64
2022-12-31T05:38:03.136Z,56.68
2022-12-31T05:40:31.368Z,56.70
2022-12-31T05:42:59.644Z,56.61
2022-12-31T05:45:31.132Z,56.45
2022-12-31T05:47:59.922Z,56.45
2022-12-31T05:50:28.242Z,56.56
2022-12-31T05:52:56.534Z,56.53
2022-12-31T05:55:24.969Z,56.55
2022-12-31T05:57:53.179Z,56.53
2022-12-31T06:00:21.556Z,56.65
2022-12-31T06:02:51.187Z,56.77
2022-12-31T06:05:25.742Z,56.72
2022-12-31T06:07:54.475Z,56.81
2022-12-31T06:10:22.730Z,56.85
2022-12-31T06:12:50.975Z,56.93
2022-12-31T06:15:19.459Z,57.03
2022-12-31T06:17:47.700Z,56.95
2022-12-31T06:20:17.505Z,57.07
2022-12-31T06:22:45.749Z,57.07
2022-12-31T06:25:14.357Z,56.98
2022-12-31T06:27:42.613Z,57.14
2022-12-31T06:30:13.570Z,57.03
2022-12-31T06:32:42.345Z,57.16
2022-12-31T06:35:11.224Z,57.28
2022-12-31T06:37:40.803Z,57.48
2022-12-31T06:40:10.960Z,57.31
2022-12-31T06:42:39.222Z,57.44
2022-12-31T06:45:09.192Z,57.33
2022-12-31T06:47:37.394Z,57.46
2022-12-31T06:50:07.230Z,57.35
2022-12-31T06:52:35.543Z,57.43
2022-12-31T06:55:07.104Z,57.43
2022-12-31T06:57:36.178Z,57.50
2022-12-31T07:00:06.820Z,57.47
2022-12-31T07:03:00.500Z,57.38
2022-12-31T07:05:38.950Z,57.47
2022-12-31T07:08:23.153Z,57.50
2022-12-31T07:11:01.093Z,57.36
2022-12-31T07:13:57.444Z,57.46
2022-12-31T07:16:40.699Z,57.40
2022-12-31T07:19:24.145Z,57.46
2022-12-31T07:21:54.574Z,57.37
2022-12-31T07:24:23.900Z,57.40
2022-12-31T07:27:12.622Z,57.45
2022-12-31T07:30:00.239Z,57.44
2022-12-31T07:32:59.403Z,57.61
2022-12-31T07:35:39.083Z,57.49
2022-12-31T07:38:17.583Z,57.54
2022-12-31T07:40:59.805Z,57.44
2022-12-31T07:43:37.494Z,57.43
2022-12-31T07:46:14.837Z,57.52
2022-12-31T07:48:43.608Z,57.61
2022-12-31T07:51:13.043Z,57.44
2022-12-31T07:53:41.330Z,57.53
2022-12-31T07:56:11.133Z,57.73
2022-12-31T07:59:01.267Z,57.64
2022-12-31T08:01:42.079Z,57.63
2022-12-31T08:04:24.633Z,57.82
2022-12-31T08:07:04.452Z,57.79
2022-12-31T08:09:44.151Z,58.02
2022-12-31T08:12:12.826Z,58.11
2022-12-31T08:14:47.486Z,57.97
2022-12-31T08:17:19.367Z,58.24
2022-12-31T08:19:48.646Z,58.24
2022-12-31T08:22:38.948Z,58.37
2022-12-31T08:25:19.710Z,58.32
2022-12-31T08:28:01.739Z,58.43
2022-12-31T08:30:46.901Z,58.38
2022-12-31T08:33:20.704Z,58.49
2022-12-31T08:36:05.083Z,58.63
2022-12-31T08:38:41.797Z,58.56
2022-12-31T08:41:21.327Z,58.68
2022-12-31T08:44:03.006Z,58.54
2022-12-31T08:46:40.677Z,58.83
2022-12-31T08:49:11.366Z,59.03
2022-12-31T08:51:40.283Z,58.95
2022-12-31T08:54:11.597Z,58.95
2022-12-31T08:56:50.620Z,59.09
2022-12-31T08:59:33.104Z,59.13
2022-12-31T09:02:24.625Z,59.03
2022-12-31T09:05:03.247Z,59.40
2022-12-31T09:07:39.282Z,59.34
2022-12-31T09:10:20.426Z,59.65
2022-12-31T09:13:01.421Z,59.54
2022-12-31T09:15:37.274Z,59.63
2022-12-31T09:18:09.648Z,59.19
2022-12-31T09:20:43.265Z,59.21
2022-12-31T09:23:13.687Z,59.26
2022-12-31T09:25:47.228Z,59.09
2022-12-31T09:28:24.491Z,59.22
2022-12-31T09:31:01.435Z,59.23
2022-12-31T09:33:42.862Z,59.46
2022-12-31T09:36:20.871Z,59.57
2022-12-31T09:38:55.610Z,59.73
2022-12-31T09:41:46.712Z,59.81
2022-12-31T09:44:59.228Z,60.12
2022-12-31T09:48:19.399Z,60.40
2022-12-31T09:51:08.416Z,60.70
2022-12-31T09:54:11.958Z,60.94
2022-12-31T09:56:47.189Z,61.35
2022-12-31T09:59:25.237Z,61.57
2022-12-31T10:02:01.979Z,61.51
2022-12-31T10:04:57.510Z,60.68
2022-12-31T10:07:52.793Z,59.89
2022-12-31T10:10:29.290Z,59.55
2022-12-31T10:13:20.145Z,59.52
2022-12-31T10:16:04.751Z,59.69
2022-12-31T10:19:37.408Z,59.29
2022-12-31T10:22:28.133Z,59.71
2022-12-31T10:25:20.750Z,60.22
2022-12-31T10:28:16.176Z,60.55
2022-12-31T10:30:57.740Z,60.03
2022-12-31T10:33:43.726Z,59.89
2022-12-31T10:36:21.145Z,59.38
2022-12-31T10:39:10.473Z,58.65
2022-12-31T10:42:24.327Z,58.23
2022-12-31T10:45:28.738Z,57.87
2022-12-31T10:49:00.531Z,57.61
2022-12-31T10:52:28.822Z,57.36
2022-12-31T10:55:42.612Z,57.27
2022-12-31T10:58:51.976Z,57.04
2022-12-31T11:01:26.959Z,56.66
2022-12-31T11:04:44.583Z,56.69
2022-12-31T11:08:02.148Z,56.88
2022-12-31T11:11:19.050Z,56.69
2022-12-31T11:14:42.363Z,56.75
2022-12-31T11:17:38.181Z,56.58
2022-12-31T11:20:32.315Z,56.63
2022-12-31T11:23:15.392Z,56.67
2022-12-31T11:25:58.613Z,56.75
2022-12-31T11:29:03.998Z,56.79
2022-12-31T11:31:52.321Z,56.49
2022-12-31T11:34:53.379Z,56.82
2022-12-31T11:37:38.531Z,56.90
2022-12-31T11:40:28.026Z,56.71
2022-12-31T11:43:00.763Z,56.70
2022-12-31T11:45:50.931Z,56.57
2022-12-31T11:48:30.661Z,56.50
2022-12-31T11:51:31.520Z,56.51
2022-12-31T12:56:22.720Z,67.11
2022-12-31T12:59:13.838Z,66.95
2022-12-31T13:01:49.863Z,66.02
2022-12-31T13:04:47.827Z,65.17
2022-12-31T13:07:37.024Z,64.21
2022-12-31T13:10:23.329Z,63.33
2022-12-31T13:13:23.314Z,62.75
2022-12-31T13:16:00.368Z,62.13
2022-12-31T13:18:42.866Z,61.63
2022-12-31T13:21:30.051Z,61.25
2022-12-31T13:24:05.281Z,60.79
2022-12-31T13:26:40.950Z,60.60
2022-12-31T13:29:18.860Z,60.28
2022-12-31T13:31:49.039Z,59.94
2022-12-31T13:34:22.533Z,59.54
2022-12-31T13:36:53.079Z,59.46
2022-12-31T13:39:27.041Z,59.08
2022-12-31T13:42:02.361Z,58.90
2022-12-31T13:44:39.922Z,58.83
2022-12-31T13:47:14.464Z,58.44
2022-12-31T13:49:48.632Z,58.45
2022-12-31T13:52:30.428Z,58.22
2022-12-31T13:55:09.368Z,58.09
2022-12-31T13:57:44.053Z,57.90
2022-12-31T14:00:22.921Z,57.66
2022-12-31T14:03:03.187Z,57.54
2022-12-31T14:05:37.536Z,57.37
2022-12-31T14:08:07.748Z,57.24
2022-12-31T14:10:51.883Z,57.10
2022-12-31T14:13:45.260Z,57.09
2022-12-31T14:16:23.789Z,56.90
2022-12-31T14:19:06.596Z,56.71
2022-12-31T14:21:44.312Z,56.70
2022-12-31T14:24:17.530Z,56.41
2022-12-31T14:26:50.491Z,56.36
2022-12-31T14:29:33.179Z,56.30
2022-12-31T14:32:43.070Z,56.16
2022-12-31T14:35:33.754Z,56.04
2022-12-31T14:38:15.731Z,55.89
2022-12-31T14:40:57.239Z,56.07
2022-12-31T14:43:38.262Z,55.86
2022-12-31T14:46:15.710Z,55.79
2022-12-31T14:48:56.719Z,55.61
2022-12-31T14:51:29.706Z,55.42
2022-12-31T14:53:59.625Z,55.50
2022-12-31T14:56:43.794Z,55.42
2022-12-31T14:59:27.538Z,55.23
2022-12-31T15:01:58.342Z,55.09
2022-12-31T15:04:35.584Z,55.07
2022-12-31T15:07:14.623Z,54.86
2022-12-31T15:10:08.445Z,55.00
2022-12-31T15:13:04.318Z,54.79
2022-12-31T15:16:22.415Z,54.66
2022-12-31T15:19:51.814Z,54.46
2022-12-31T15:22:39.340Z,54.62
2022-12-31T15:25:39.966Z,54.39
2022-12-31T15:28:28.947Z,54.38
2022-12-31T15:31:10.742Z,54.29
2022-12-31T15:33:54.324Z,54.43
2022-12-31T15:36:26.177Z,54.45
2022-12-31T15:39:27.013Z,54.71
2022-12-31T15:44:55.427Z,54.80
2022-12-31T15:47:30.147Z,54.70
2022-12-31T15:50:03.231Z,54.61
2022-12-31T15:52:41.594Z,54.65
2022-12-31T15:55:24.243Z,54.76
2022-12-31T15:57:53.361Z,54.81
2022-12-31T16:00:25.008Z,54.73
2022-12-31T16:02:55.944Z,54.44
2022-12-31T16:05:26.686Z,54.54
2022-12-31T16:07:56.238Z,54.52
2022-12-31T16:10:30.814Z,54.45
2022-12-31T16:13:01.040Z,54.54
2022-12-31T16:15:32.955Z,54.40
2022-12-31T16:18:04.478Z,54.36
2022-12-31T16:20:35.634Z,54.45
2022-12-31T16:23:20.984Z,54.23
2022-12-31T16:25:52.708Z,54.31
2022-12-31T16:28:24.960Z,54.32
2022-12-31T16:31:02.763Z,54.16
2022-12-31T16:33:32.621Z,54.12
2022-12-31T16:36:02.731Z,54.28
2022-12-31T16:38:35.956Z,54.32
2022-12-31T16:41:19.847Z,54.33
2022-12-31T16:43:49.806Z,54.41
2022-12-31T16:46:26.292Z,54.27
2022-12-31T16:48:57.421Z,54.39
2022-12-31T16:51:30.394Z,54.08
2022-12-31T16:53:59.872Z,54.04
2022-12-31T16:56:35.266Z,53.97
2022-12-31T16:59:08.313Z,54.28
2022-12-31T17:01:38.687Z,54.19
2022-12-31T17:04:12.826Z,54.20
2022-12-31T17:06:41.221Z,54.19
2022-12-31T17:09:15.118Z,54.17
2022-12-31T17:11:53.986Z,54.30
2022-12-31T17:14:25.239Z,54.27
2022-12-31T17:17:03.021Z,54.33
2022-12-31T17:19:42.119Z,54.53
2022-12-31T17:22:17.060Z,54.88
2022-12-31T17:24:48.560Z,54.85
2022-12-31T17:27:18.821Z,54.86
2022-12-31T17:29:48.324Z,54.69
2022-12-31T17:32:32.264Z,54.80
2022-12-31T17:35:00.597Z,54.79
2022-12-31T17:37:31.288Z,54.96
2022-12-31T17:40:24.980Z,55.09
2022-12-31T17:42:51.895Z,54.96
2022-12-31T17:45:22.914Z,54.98
2022-12-31T17:47:53.958Z,54.81
2022-12-31T17:50:25.935Z,54.95
2022-12-31T17:52:57.721Z,54.89
2022-12-31T17:55:26.106Z,54.72
2022-12-31T17:57:58.388Z,54.68
2022-12-31T18:00:28.284Z,54.44
2022-12-31T18:02:56.725Z,54.53
2022-12-31T18:05:25.957Z,54.76
2022-12-31T18:07:54.531Z,54.78
2022-12-31T18:10:25.690Z,54.64
2022-12-31T18:12:55.699Z,54.75
2022-12-31T18:15:25.925Z,54.61
2022-12-31T18:17:54.274Z,54.48
2022-12-31T18:20:22.867Z,54.85
2022-12-31T18:22:51.882Z,54.66
2022-12-31T18:25:23.079Z,54.74
2022-12-31T18:27:52.955Z,54.73
2022-12-31T18:30:23.514Z,54.80
2022-12-31T18:32:52.119Z,55.05
2022-12-31T18:38:15.016Z,55.27
2022-12-31T18:40:46.805Z,55.45
2022-12-31T18:43:17.774Z,55.40
2022-12-31T18:45:48.697Z,55.44
2022-12-31T18:48:18.052Z,55.40
2022-12-31T18:50:47.566Z,55.40
2022-12-31T18:53:18.721Z,55.43
2022-12-31T18:55:50.719Z,55.44
2022-12-31T18:58:19.349Z,55.50
2022-12-31T19:00:50.310Z,55.49
2022-12-31T19:03:21.525Z,55.32
2022-12-31T19:05:51.924Z,55.37
2022-12-31T19:08:21.622Z,55.34
2022-12-31T19:10:51.950Z,55.54
2022-12-31T19:13:22.974Z,55.58
2022-12-31T19:15:55.617Z,55.54
2022-12-31T19:18:24.028Z,55.63
2022-12-31T19:20:53.344Z,55.63
2022-12-31T19:23:22.716Z,55.49
2022-12-31T19:25:51.717Z,55.35
2022-12-31T19:28:22.743Z,55.46
2022-12-31T19:30:53.051Z,55.34
2022-12-31T19:33:21.600Z,55.35
2022-12-31T19:35:50.423Z,55.27
2022-12-31T19:38:21.335Z,55.15
2022-12-31T19:40:50.736Z,55.35
2022-12-31T19:43:21.734Z,55.31
2022-12-31T19:45:52.827Z,55.25
2022-12-31T19:48:32.038Z,55.13
2022-12-31T19:51:01.786Z,55.20
2022-12-31T19:53:30.195Z,55.10
2022-12-31T19:55:58.546Z,55.23
2022-12-31T19:58:28.320Z,55.15
2022-12-31T20:01:03.196Z,55.09
2022-12-31T20:03:35.195Z,55.07
2022-12-31T20:06:06.800Z,54.99
2022-12-31T20:08:35.252Z,54.92
2022-12-31T20:11:10.160Z,55.11
2022-12-31T20:13:39.744Z,55.25
2022-12-31T20:16:12.530Z,55.21
2022-12-31T20:18:42.504Z,55.51
2022-12-31T20:21:13.272Z,55.45
2022-12-31T20:23:41.914Z,55.64
2022-12-31T20:26:10.848Z,55.71
2022-12-31T20:28:39.357Z,55.78
2022-12-31T20:31:11.414Z,55.76
2022-12-31T20:33:40.281Z,55.74
2022-12-31T20:36:11.659Z,55.69
2022-12-31T20:38:40.224Z,56.03
2022-12-31T20:41:11.744Z,55.90
2022-12-31T20:43:40.648Z,55.92
2022-12-31T20:46:15.736Z,55.89
2022-12-31T20:48:45.041Z,55.93
2022-12-31T20:51:13.540Z,55.77
2022-12-31T20:53:47.010Z,55.63
2022-12-31T20:56:15.422Z,55.62
2022-12-31T20:58:43.905Z,55.65
2022-12-31T21:01:16.251Z,55.70
2022-12-31T21:04:04.694Z,55.84
2022-12-31T21:06:35.286Z,55.87
2022-12-31T21:09:06.689Z,55.62
2022-12-31T21:11:53.532Z,55.59
2022-12-31T21:14:22.221Z,55.79
2022-12-31T21:16:52.068Z,55.77
2022-12-31T21:19:20.388Z,55.63
2022-12-31T21:21:49.871Z,55.56
2022-12-31T21:24:23.494Z,55.42
2022-12-31T21:26:52.197Z,55.25
2022-12-31T21:29:20.552Z,55.03
2022-12-31T21:31:48.999Z,55.40
2022-12-31T21:34:18.929Z,55.42
2022-12-31T21:36:47.374Z,55.34
2022-12-31T21:39:15.922Z,55.38
2022-12-31T21:41:53.349Z,55.38
2022-12-31T21:44:23.991Z,55.50
2022-12-31T21:47:35.264Z,55.60
2022-12-31T21:50:05.906Z,55.61
2022-12-31T21:52:35.282Z,55.64
2022-12-31T21:55:24.088Z,55.77
2022-12-31T22:00:59.818Z,55.90
2022-12-31T22:03:28.663Z,55.99
2022-12-31T22:06:02.981Z,55.98
2022-12-31T22:08:32.790Z,56.04
2022-12-31T22:11:01.238Z,56.21
2022-12-31T22:13:29.655Z,56.20
2022-12-31T22:16:04.629Z,56.20
2022-12-31T22:18:35.777Z,56.23
2022-12-31T22:21:15.732Z,56.34
2022-12-31T22:23:48.218Z,56.26
2022-12-31T22:26:19.699Z,56.38
2022-12-31T22:28:48.748Z,56.35
2022-12-31T22:31:19.585Z,56.25
2022-12-31T22:33:48.356Z,56.36
2022-12-31T22:36:20.347Z,56.34
2022-12-31T22:38:50.884Z,56.23
2022-12-31T22:41:21.657Z,56.19
2022-12-31T22:43:58.503Z,56.16
2022-12-31T22:46:30.986Z,56.20
2022-12-31T22:49:00.901Z,56.06
2022-12-31T22:51:56.708Z,56.22
2022-12-31T22:54:20.251Z,56.17
2022-12-31T22:56:48.755Z,56.04
2022-12-31T22:59:17.093Z,55.94
2022-12-31T23:01:45.743Z,56.10
2022-12-31T23:04:14.347Z,55.79
2022-12-31T23:06:46.665Z,56.02
2022-12-31T23:09:34.614Z,55.82
2022-12-31T23:12:03.506Z,55.81
2022-12-31T23:14:49.379Z,55.84
2022-12-31T23:17:38.649Z,55.80
2022-12-31T23:20:28.739Z,55.85
2022-12-31T23:23:10.729Z,55.83
2022-12-31T23:25:42.335Z,55.89
2022-12-31T23:28:15.041Z,55.77
2022-12-31T23:30:44.183Z,55.61
2022-12-31T23:33:16.998Z,55.70
2022-12-31T23:35:45.374Z,55.65
2022-12-31T23:38:16.867Z,55.53
2022-12-31T23:40:45.443Z,55.62
2022-12-31T23:43:21.835Z,55.51
2022-12-31T23:45:51.263Z,55.54
2022-12-31T23:48:19.604Z,55.60
2022-12-31T23:50:53.833Z,55.57
2022-12-31T23:53:24.241Z,55.38
2022-12-31T23:55:52.776Z,55.43
2022-12-31T23:58:21.377Z,55.35
